sensor_id;sensor_type;location;lat;lon;timestamp;pressure;altitude;pressure_sealevel;temperature;humidity
11339;BME280;5724;42.684;23.252;2022-07-10T00:01:19;94295.09;;;14.73;96.01
11339;BME280;5724;42.684;23.252;2022-07-10T00:03:44;94289.19;;;14.68;96.40
11339;BME280;5724;42.684;23.252;2022-07-10T00:06:10;94280.06;;;14.53;97.36
11339;BME280;5724;42.684;23.252;2022-07-10T00:08:36;94286.31;;;14.46;98.12
11339;BME280;5724;42.684;23.252;2022-07-10T00:11:01;94284.75;;;14.45;98.56
11339;BME280;5724;42.684;23.252;2022-07-10T00:13:27;94286.38;;;14.57;97.72
11339;BME280;5724;42.684;23.252;2022-07-10T00:15:52;94289.19;;;14.68;97.79
11339;BME280;5724;42.684;23.252;2022-07-10T00:18:18;94282.84;;;14.56;97.55
11339;BME280;5724;42.684;23.252;2022-07-10T00:20:43;94293.44;;;14.51;98.11
11339;BME280;5724;42.684;23.252;2022-07-10T00:23:09;94283.22;;;14.48;98.18
11339;BME280;5724;42.684;23.252;2022-07-10T00:25:34;94280.03;;;14.46;98.46
11339;BME280;5724;42.684;23.252;2022-07-10T00:28:00;94278.91;;;14.50;98.41
11339;BME280;5724;42.684;23.252;2022-07-10T00:30:26;94276.16;;;14.54;98.21
11339;BME280;5724;42.684;23.252;2022-07-10T00:32:51;94280.06;;;14.53;97.52
11339;BME280;5724;42.684;23.252;2022-07-10T00:35:17;94279.28;;;14.52;97.61
11339;BME280;5724;42.684;23.252;2022-07-10T00:37:42;94280.06;;;14.53;97.54
11339;BME280;5724;42.684;23.252;2022-07-10T00:40:08;94273.81;;;14.56;97.05
11339;BME280;5724;42.684;23.252;2022-07-10T00:42:34;94276.16;;;14.54;96.98
11339;BME280;5724;42.684;23.252;2022-07-10T00:44:59;94270.25;;;14.55;97.00
11339;BME280;5724;42.684;23.252;2022-07-10T00:47:25;94273.06;;;14.66;97.13
11339;BME280;5724;42.684;23.252;2022-07-10T00:49:50;94268.34;;;14.59;96.03
11339;BME280;5724;42.684;23.252;2022-07-10T00:52:17;94261.25;;;14.58;96.72
11339;BME280;5724;42.684;23.252;2022-07-10T00:54:44;94263.59;;;14.53;97.01
11339;BME280;5724;42.684;23.252;2022-07-10T00:57:12;94267.50;;;14.48;96.85
11339;BME280;5724;42.684;23.252;2022-07-10T00:59:39;94262.38;;;14.47;96.77
11339;BME280;5724;42.684;23.252;2022-07-10T01:02:06;94259.53;;;14.36;97.39
11339;BME280;5724;42.684;23.252;2022-07-10T01:04:32;94263.44;;;14.31;98.01
11339;BME280;5724;42.684;23.252;2022-07-10T01:06:58;94249.31;;;14.33;98.24
11339;BME280;5724;42.684;23.252;2022-07-10T01:09:23;94258.34;;;14.33;98.34
11339;BME280;5724;42.684;23.252;2022-07-10T01:11:49;94265.06;;;14.43;97.74
11339;BME280;5724;42.684;23.252;2022-07-10T01:14:15;94259.53;;;14.32;98.43
11339;BME280;5724;42.684;23.252;2022-07-10T01:16:41;94261.09;;;14.30;98.29
11339;BME280;5724;42.684;23.252;2022-07-10T01:19:06;94256.78;;;14.29;98.96
11339;BME280;5724;42.684;23.252;2022-07-10T01:21:34;94252.88;;;14.37;98.55
11339;BME280;5724;42.684;23.252;2022-07-10T01:24:04;94251.63;;;14.27;98.25
11339;BME280;5724;42.684;23.252;2022-07-10T01:26:30;94252.78;;;14.23;98.29
11339;BME280;5724;42.684;23.252;2022-07-10T01:28:56;94251.63;;;14.27;98.34
11339;BME280;5724;42.684;23.252;2022-07-10T01:31:26;94247.69;;;14.25;98.49
11339;BME280;5724;42.684;23.252;2022-07-10T01:33:52;94241.41;;;14.24;98.90
11339;BME280;5724;42.684;23.252;2022-07-10T01:36:18;94231.94;;;14.18;98.64
11339;BME280;5724;42.684;23.252;2022-07-10T01:38:43;94232.41;;;14.27;98.30
11339;BME280;5724;42.684;23.252;2022-07-10T01:41:09;94231.94;;;14.18;98.87
11339;BME280;5724;42.684;23.252;2022-07-10T01:43:38;94222.47;;;14.09;99.40
11339;BME280;5724;42.684;23.252;2022-07-10T01:46:08;94211.91;;;14.14;98.80
11339;BME280;5724;42.684;23.252;2022-07-10T01:48:33;94232.75;;;14.19;99.21
11339;BME280;5724;42.684;23.252;2022-07-10T01:50:59;94232.34;;;14.13;98.52
11339;BME280;5724;42.684;23.252;2022-07-10T01:53:24;94240.56;;;14.13;98.34
11339;BME280;5724;42.684;23.252;2022-07-10T01:55:50;94238.63;;;14.14;98.68
11339;BME280;5724;42.684;23.252;2022-07-10T01:58:16;94237.44;;;14.18;98.13
11339;BME280;5724;42.684;23.252;2022-07-10T02:00:41;94239.00;;;14.12;98.29
11339;BME280;5724;42.684;23.252;2022-07-10T02:03:06;94232.66;;;14.04;98.42
11339;BME280;5724;42.684;23.252;2022-07-10T02:05:51;94229.91;;;14.01;98.44
11339;BME280;5724;42.684;23.252;2022-07-10T02:08:16;94218.88;;;13.94;99.00
11339;BME280;5724;42.684;23.252;2022-07-10T02:10:42;94218.47;;;13.92;99.78
11339;BME280;5724;42.684;23.252;2022-07-10T02:13:07;94223.13;;;13.84;100.00
11339;BME280;5724;42.684;23.252;2022-07-10T02:15:35;94218.44;;;13.88;99.74
11339;BME280;5724;42.684;23.252;2022-07-10T02:18:00;94220.72;;;13.75;100.00
11339;BME280;5724;42.684;23.252;2022-07-10T02:20:26;94213.66;;;13.78;100.00
11339;BME280;5724;42.684;23.252;2022-07-10T02:22:51;94217.97;;;13.75;100.00
11339;BME280;5724;42.684;23.252;2022-07-10T02:25:17;94214.81;;;13.73;100.00
11339;BME280;5724;42.684;23.252;2022-07-10T02:27:42;94216.78;;;13.77;100.00
11339;BME280;5724;42.684;23.252;2022-07-10T02:30:08;94216.78;;;13.73;100.00
11339;BME280;5724;42.684;23.252;2022-07-10T02:32:33;94216.00;;;13.80;100.00
11339;BME280;5724;42.684;23.252;2022-07-10T02:34:59;94213.25;;;13.76;99.90
11339;BME280;5724;42.684;23.252;2022-07-10T02:37:24;94217.56;;;13.77;99.56
11339;BME280;5724;42.684;23.252;2022-07-10T02:39:50;94197.94;;;13.71;99.57
11339;BME280;5724;42.684;23.252;2022-07-10T02:42:16;94217.19;;;13.75;99.44
11339;BME280;5724;42.684;23.252;2022-07-10T02:44:41;94210.53;;;13.80;99.14
11339;BME280;5724;42.684;23.252;2022-07-10T02:47:07;94208.94;;;13.75;99.35
11339;BME280;5724;42.684;23.252;2022-07-10T02:49:32;94221.50;;;13.80;99.13
11339;BME280;5724;42.684;23.252;2022-07-10T02:51:58;94220.72;;;13.75;99.03
11339;BME280;5724;42.684;23.252;2022-07-10T02:54:24;94221.94;;;13.85;98.71
11339;BME280;5724;42.684;23.252;2022-07-10T02:56:49;94228.59;;;13.81;98.65
11339;BME280;5724;42.684;23.252;2022-07-10T02:59:15;94231.72;;;13.79;98.79
11339;BME280;5724;42.684;23.252;2022-07-10T03:01:42;94223.13;;;13.81;98.66
11339;BME280;5724;42.684;23.252;2022-07-10T03:04:07;94198.66;;;13.61;98.25
11339;BME280;5724;42.684;23.252;2022-07-10T03:06:33;94227.81;;;13.80;98.40
11339;BME280;5724;42.684;23.252;2022-07-10T03:08:58;94236.41;;;13.75;99.02
11339;BME280;5724;42.684;23.252;2022-07-10T03:11:24;94240.00;;;13.83;98.80
11339;BME280;5724;42.684;23.252;2022-07-10T03:13:49;94245.09;;;13.81;99.14
11339;BME280;5724;42.684;23.252;2022-07-10T03:16:15;94239.59;;;13.81;99.40
11339;BME280;5724;42.684;23.252;2022-07-10T03:18:40;94240.00;;;13.83;99.13
11339;BME280;5724;42.684;23.252;2022-07-10T03:21:06;94245.47;;;13.83;99.46
11339;BME280;5724;42.684;23.252;2022-07-10T03:23:31;94245.53;;;13.90;99.15
11339;BME280;5724;42.684;23.252;2022-07-10T03:25:57;94247.53;;;13.96;98.71
11339;BME280;5724;42.684;23.252;2022-07-10T03:28:22;94247.47;;;13.89;99.32
11339;BME280;5724;42.684;23.252;2022-07-10T03:30:47;94247.53;;;13.96;98.86
11339;BME280;5724;42.684;23.252;2022-07-10T03:33:13;94259.75;;;14.06;98.31
11339;BME280;5724;42.684;23.252;2022-07-10T03:35:39;94257.03;;;14.10;97.97
11339;BME280;5724;42.684;23.252;2022-07-10T03:38:05;94250.38;;;14.11;97.48
11339;BME280;5724;42.684;23.252;2022-07-10T03:40:30;94248.47;;;14.22;97.32
11339;BME280;5724;42.684;23.252;2022-07-10T03:42:56;94235.88;;;14.17;97.01
11339;BME280;5724;42.684;23.252;2022-07-10T03:45:22;94244.16;;;14.28;96.37
11339;BME280;5724;42.684;23.252;2022-07-10T03:47:47;94245.00;;;14.32;96.57
11339;BME280;5724;42.684;23.252;2022-07-10T03:50:12;94244.56;;;14.26;96.45
11339;BME280;5724;42.684;23.252;2022-07-10T03:52:38;94248.53;;;14.29;96.54
11339;BME280;5724;42.684;23.252;2022-07-10T03:55:04;94247.41;;;14.41;96.31
11339;BME280;5724;42.684;23.252;2022-07-10T03:57:29;94245.50;;;14.48;95.51
11339;BME280;5724;42.684;23.252;2022-07-10T04:00:14;94239.53;;;14.39;95.78
11339;BME280;5724;42.684;23.252;2022-07-10T04:02:39;94236.88;;;14.50;95.69
11339;BME280;5724;42.684;23.252;2022-07-10T04:05:06;94237.59;;;14.43;95.17
11339;BME280;5724;42.684;23.252;2022-07-10T04:07:32;94241.53;;;14.46;95.32
11339;BME280;5724;42.684;23.252;2022-07-10T04:09:57;94230.59;;;14.53;94.90
11339;BME280;5724;42.684;23.252;2022-07-10T04:12:23;94232.16;;;14.50;95.07
11339;BME280;5724;42.684;23.252;2022-07-10T04:14:49;94227.84;;;14.49;95.11
11339;BME280;5724;42.684;23.252;2022-07-10T04:17:17;94231.06;;;14.69;95.02
11339;BME280;5724;42.684;23.252;2022-07-10T04:19:43;94217.72;;;14.78;94.82
11339;BME280;5724;42.684;23.252;2022-07-10T04:22:08;94221.66;;;14.84;92.33
11339;BME280;5724;42.684;23.252;2022-07-10T04:24:34;94222.84;;;14.83;92.05
11339;BME280;5724;42.684;23.252;2022-07-10T04:27:00;94215.38;;;14.80;92.45
11339;BME280;5724;42.684;23.252;2022-07-10T04:29:26;94224.03;;;14.82;91.37
11339;BME280;5724;42.684;23.252;2022-07-10T04:31:52;94217.38;;;14.91;90.88
11339;BME280;5724;42.684;23.252;2022-07-10T04:34:17;94209.53;;;14.96;91.47
11339;BME280;5724;42.684;23.252;2022-07-10T04:36:43;94216.63;;;15.08;90.35
11339;BME280;5724;42.684;23.252;2022-07-10T04:39:08;94220.53;;;15.00;90.68
11339;BME280;5724;42.684;23.252;2022-07-10T04:41:34;94225.25;;;15.03;90.05
11339;BME280;5724;42.684;23.252;2022-07-10T04:43:59;94223.31;;;15.10;90.44
11339;BME280;5724;42.684;23.252;2022-07-10T04:46:25;94224.47;;;15.13;90.92
11339;BME280;5724;42.684;23.252;2022-07-10T04:48:50;94225.69;;;15.26;89.65
11339;BME280;5724;42.684;23.252;2022-07-10T04:51:16;94228.06;;;15.31;89.14
11339;BME280;5724;42.684;23.252;2022-07-10T04:53:42;94219.78;;;15.24;88.97
11339;BME280;5724;42.684;23.252;2022-07-10T04:56:08;94233.97;;;15.26;88.58
11339;BME280;5724;42.684;23.252;2022-07-10T04:58:33;94230.03;;;15.27;88.77
11339;BME280;5724;42.684;23.252;2022-07-10T05:00:58;94229.63;;;15.29;88.78
11339;BME280;5724;42.684;23.252;2022-07-10T05:03:24;94225.28;;;15.24;88.30
11339;BME280;5724;42.684;23.252;2022-07-10T05:05:50;94225.72;;;15.37;87.54
11339;BME280;5724;42.684;23.252;2022-07-10T05:08:15;94221.38;;;15.32;88.17
11339;BME280;5724;42.684;23.252;2022-07-10T05:10:40;94219.03;;;15.49;87.57
11339;BME280;5724;42.684;23.252;2022-07-10T05:13:06;94219.00;;;15.52;86.80
11339;BME280;5724;42.684;23.252;2022-07-10T05:15:32;94224.56;;;15.63;86.22
11339;BME280;5724;42.684;23.252;2022-07-10T05:17:57;94215.88;;;15.54;86.47
11339;BME280;5724;42.684;23.252;2022-07-10T05:20:23;94223.00;;;15.65;87.37
11339;BME280;5724;42.684;23.252;2022-07-10T05:22:48;94221.81;;;15.73;85.58
11339;BME280;5724;42.684;23.252;2022-07-10T05:25:14;94224.94;;;15.72;85.88
11339;BME280;5724;42.684;23.252;2022-07-10T05:27:39;94220.63;;;15.78;85.49
11339;BME280;5724;42.684;23.252;2022-07-10T05:30:05;94209.59;;;15.85;85.07
11339;BME280;5724;42.684;23.252;2022-07-10T05:32:30;94224.16;;;15.96;85.25
11339;BME280;5724;42.684;23.252;2022-07-10T05:34:59;94231.66;;;15.92;84.87
11339;BME280;5724;42.684;23.252;2022-07-10T05:37:24;94240.69;;;16.03;84.60
11339;BME280;5724;42.684;23.252;2022-07-10T05:39:50;94222.22;;;15.83;85.22
11339;BME280;5724;42.684;23.252;2022-07-10T05:42:15;94218.25;;;15.94;84.51
11339;BME280;5724;42.684;23.252;2022-07-10T05:44:40;94224.94;;;16.04;85.20
11339;BME280;5724;42.684;23.252;2022-07-10T05:47:06;94225.28;;;16.17;84.66
11339;BME280;5724;42.684;23.252;2022-07-10T05:49:32;94230.03;;;16.09;84.49
11339;BME280;5724;42.684;23.252;2022-07-10T05:51:58;94209.13;;;16.19;83.87
11339;BME280;5724;42.684;23.252;2022-07-10T05:54:23;94226.75;;;16.50;84.26
11339;BME280;5724;42.684;23.252;2022-07-10T05:56:49;94227.16;;;16.55;82.81
11339;BME280;5724;42.684;23.252;2022-07-10T05:59:15;94226.38;;;16.51;83.06
11339;BME280;5724;42.684;23.252;2022-07-10T06:01:41;94216.47;;;16.75;81.37
11339;BME280;5724;42.684;23.252;2022-07-10T06:04:06;94216.75;;;16.95;79.80
11339;BME280;5724;42.684;23.252;2022-07-10T06:06:32;94231.28;;;17.10;79.15
11339;BME280;5724;42.684;23.252;2022-07-10T06:08:57;94217.81;;;17.15;78.03
11339;BME280;5724;42.684;23.252;2022-07-10T06:11:24;94221.78;;;17.14;78.07
11339;BME280;5724;42.684;23.252;2022-07-10T06:13:50;94227.25;;;17.22;78.04
11339;BME280;5724;42.684;23.252;2022-07-10T06:16:15;94219.34;;;17.24;77.60
11339;BME280;5724;42.684;23.252;2022-07-10T06:18:41;94191.41;;;17.14;76.32
11339;BME280;5724;42.684;23.252;2022-07-10T06:21:06;94220.44;;;17.37;75.73
11339;BME280;5724;42.684;23.252;2022-07-10T06:23:33;94230.66;;;17.47;76.12
11339;BME280;5724;42.684;23.252;2022-07-10T06:25:58;94221.78;;;17.14;76.24
11339;BME280;5724;42.684;23.252;2022-07-10T06:28:24;94222.03;;;17.34;76.19
11339;BME280;5724;42.684;23.252;2022-07-10T06:30:50;94220.03;;;17.42;76.16
11339;BME280;5724;42.684;23.252;2022-07-10T06:33:15;94213.69;;;17.45;74.94
11339;BME280;5724;42.684;23.252;2022-07-10T06:35:41;94214.38;;;17.56;74.93
11339;BME280;5724;42.684;23.252;2022-07-10T06:38:06;94213.19;;;17.61;74.45
11339;BME280;5724;42.684;23.252;2022-07-10T06:40:36;94215.97;;;17.54;73.62
11339;BME280;5724;42.684;23.252;2022-07-10T06:43:02;94207.47;;;17.30;72.95
11339;BME280;5724;42.684;23.252;2022-07-10T06:45:28;94213.69;;;17.45;74.48
11339;BME280;5724;42.684;23.252;2022-07-10T06:47:54;94215.19;;;17.53;73.87
11339;BME280;5724;42.684;23.252;2022-07-10T06:50:27;94212.91;;;17.44;72.91
11339;BME280;5724;42.684;23.252;2022-07-10T06:52:55;94217.91;;;17.60;72.82
11339;BME280;5724;42.684;23.252;2022-07-10T06:55:21;94205.31;;;17.59;73.05
11339;BME280;5724;42.684;23.252;2022-07-10T06:57:48;94217.94;;;17.57;73.46
11339;BME280;5724;42.684;23.252;2022-07-10T07:00:14;94217.59;;;17.51;72.99
11339;BME280;5724;42.684;23.252;2022-07-10T07:02:40;94216.03;;;17.46;73.41
11339;BME280;5724;42.684;23.252;2022-07-10T07:05:06;94212.47;;;17.46;74.07
11339;BME280;5724;42.684;23.252;2022-07-10T07:07:33;94201.00;;;17.51;73.73
11339;BME280;5724;42.684;23.252;2022-07-10T07:09:59;94204.06;;;17.67;74.28
11339;BME280;5724;42.684;23.252;2022-07-10T07:12:25;94198.69;;;17.94;74.52
11339;BME280;5724;42.684;23.252;2022-07-10T07:14:50;94209.88;;;18.21;73.04
11339;BME280;5724;42.684;23.252;2022-07-10T07:17:16;94219.00;;;18.18;69.70
11339;BME280;5724;42.684;23.252;2022-07-10T07:19:52;94205.47;;;17.90;70.64
11339;BME280;5724;42.684;23.252;2022-07-10T07:22:36;94208.72;;;17.78;70.33
11339;BME280;5724;42.684;23.252;2022-07-10T07:25:21;94208.03;;;17.63;70.35
11339;BME280;5724;42.684;23.252;2022-07-10T07:27:47;94207.19;;;17.73;70.93
11339;BME280;5724;42.684;23.252;2022-07-10T07:30:13;94196.19;;;17.62;71.73
11339;BME280;5724;42.684;23.252;2022-07-10T07:32:44;94191.41;;;17.70;72.43
11339;BME280;5724;42.684;23.252;2022-07-10T07:35:11;94184.97;;;17.87;72.57
11339;BME280;5724;42.684;23.252;2022-07-10T07:37:48;94203.00;;;17.99;71.49
11339;BME280;5724;42.684;23.252;2022-07-10T07:40:16;94191.72;;;18.20;71.23
11339;BME280;5724;42.684;23.252;2022-07-10T07:42:42;94185.47;;;18.16;70.95
11339;BME280;5724;42.684;23.252;2022-07-10T07:45:09;94195.09;;;18.39;69.83
11339;BME280;5724;42.684;23.252;2022-07-10T07:50:10;94207.69;;;18.43;67.14
11339;BME280;5724;42.684;23.252;2022-07-10T07:52:35;94194.34;;;18.35;68.03
11339;BME280;5724;42.684;23.252;2022-07-10T07:55:01;94197.81;;;18.42;67.71
11339;BME280;5724;42.684;23.252;2022-07-10T07:57:27;94194.94;;;18.53;67.96
11339;BME280;5724;42.684;23.252;2022-07-10T07:59:53;94199.78;;;18.42;66.49
11339;BME280;5724;42.684;23.252;2022-07-10T08:02:18;94183.59;;;18.44;66.33
11339;BME280;5724;42.684;23.252;2022-07-10T08:04:44;94181.69;;;18.71;66.29
11339;BME280;5724;42.684;23.252;2022-07-10T08:07:09;94182.22;;;18.93;68.15
11339;BME280;5724;42.684;23.252;2022-07-10T08:09:35;94185.53;;;19.11;66.52
11339;BME280;5724;42.684;23.252;2022-07-10T08:12:00;94175.75;;;19.30;61.76
11339;BME280;5724;42.684;23.252;2022-07-10T08:14:26;94197.38;;;19.12;60.96
11339;BME280;5724;42.684;23.252;2022-07-10T08:16:52;94170.72;;;18.95;61.35
11339;BME280;5724;42.684;23.252;2022-07-10T08:19:17;94171.06;;;18.97;63.43
11339;BME280;5724;42.684;23.252;2022-07-10T08:21:43;94184.47;;;19.02;60.94
11339;BME280;5724;42.684;23.252;2022-07-10T08:24:09;94176.94;;;19.29;61.48
11339;BME280;5724;42.684;23.252;2022-07-10T08:26:34;94181.03;;;19.21;61.32
11339;BME280;5724;42.684;23.252;2022-07-10T08:29:00;94195.91;;;19.04;59.32
11339;BME280;5724;42.684;23.252;2022-07-10T08:31:26;94183.38;;;19.23;62.15
11339;BME280;5724;42.684;23.252;2022-07-10T08:33:51;94200.81;;;19.47;63.42
11339;BME280;5724;42.684;23.252;2022-07-10T08:36:18;94184.31;;;19.66;62.10
11339;BME280;5724;42.684;23.252;2022-07-10T08:38:43;94194.72;;;19.59;60.60
11339;BME280;5724;42.684;23.252;2022-07-10T08:41:11;94180.06;;;19.58;61.69
11339;BME280;5724;42.684;23.252;2022-07-10T08:43:38;94199.44;;;19.62;60.77
11339;BME280;5724;42.684;23.252;2022-07-10T08:46:05;94183.63;;;19.59;60.27
11339;BME280;5724;42.684;23.252;2022-07-10T08:48:32;94175.03;;;20.00;60.32
11339;BME280;5724;42.684;23.252;2022-07-10T08:51:04;94180.97;;;20.22;59.94
11339;BME280;5724;42.684;23.252;2022-07-10T08:53:32;94184.69;;;20.58;57.88
11339;BME280;5724;42.684;23.252;2022-07-10T08:55:58;94174.13;;;20.70;57.45
11339;BME280;5724;42.684;23.252;2022-07-10T08:58:26;94170.06;;;20.54;57.31
11339;BME280;5724;42.684;23.252;2022-07-10T09:00:52;94171.00;;;20.48;56.95
11339;BME280;5724;42.684;23.252;2022-07-10T09:03:18;94166.06;;;20.55;56.42
11339;BME280;5724;42.684;23.252;2022-07-10T09:05:44;94170.94;;;20.51;57.70
11339;BME280;5724;42.684;23.252;2022-07-10T09:08:24;94175.81;;;20.44;56.79
11339;BME280;5724;42.684;23.252;2022-07-10T09:10:52;94178.47;;;20.71;56.39
11339;BME280;5724;42.684;23.252;2022-07-10T09:13:17;94170.22;;;21.23;57.15
11339;BME280;5724;42.684;23.252;2022-07-10T09:15:48;94166.03;;;21.67;56.18
11339;BME280;5724;42.684;23.252;2022-07-10T09:18:18;94177.75;;;21.75;56.38
11339;BME280;5724;42.684;23.252;2022-07-10T09:20:44;94170.22;;;21.23;54.31
11339;BME280;5724;42.684;23.252;2022-07-10T09:23:23;94169.00;;;21.24;54.14
11339;BME280;5724;42.684;23.252;2022-07-10T09:25:52;94161.31;;;21.32;54.72
11339;BME280;5724;42.684;23.252;2022-07-10T09:28:19;94164.72;;;21.56;53.26
11339;BME280;5724;42.684;23.252;2022-07-10T09:30:46;94168.19;;;21.43;54.25
11339;BME280;5724;42.684;23.252;2022-07-10T09:33:17;94153.34;;;21.34;53.29
11339;BME280;5724;42.684;23.252;2022-07-10T09:36:10;94153.69;;;21.36;54.89
11339;BME280;5724;42.684;23.252;2022-07-10T09:41:28;94160.22;;;20.90;55.18
11339;BME280;5724;42.684;23.252;2022-07-10T09:44:02;94152.41;;;20.84;54.82
11339;BME280;5724;42.684;23.252;2022-07-10T09:46:33;94158.88;;;20.98;54.66
11339;BME280;5724;42.684;23.252;2022-07-10T09:49:04;94155.69;;;21.15;54.52
11339;BME280;5724;42.684;23.252;2022-07-10T09:51:31;94151.94;;;21.42;55.03
11339;BME280;5724;42.684;23.252;2022-07-10T09:54:00;94145.00;;;21.66;54.49
11339;BME280;5724;42.684;23.252;2022-07-10T09:56:29;94158.22;;;21.62;53.25
11339;BME280;5724;42.684;23.252;2022-07-10T09:58:59;94136.47;;;21.57;53.45
11339;BME280;5724;42.684;23.252;2022-07-10T10:01:27;94154.41;;;21.73;52.32
11339;BME280;5724;42.684;23.252;2022-07-10T10:03:55;94147.50;;;21.77;52.22
11339;BME280;5724;42.684;23.252;2022-07-10T10:06:26;94151.78;;;21.65;52.47
11339;BME280;5724;42.684;23.252;2022-07-10T10:09:12;94141.22;;;22.06;53.00
11339;BME280;5724;42.684;23.252;2022-07-10T10:11:41;94147.00;;;21.66;53.33
11339;BME280;5724;42.684;23.252;2022-07-10T10:14:09;94157.25;;;21.53;53.58
11339;BME280;5724;42.684;23.252;2022-07-10T10:16:35;94167.72;;;21.29;53.94
11339;BME280;5724;42.684;23.252;2022-07-10T10:19:02;94151.13;;;20.89;55.41
11339;BME280;5724;42.684;23.252;2022-07-10T10:21:46;94145.66;;;21.02;56.88
11339;BME280;5724;42.684;23.252;2022-07-10T10:24:13;94147.03;;;21.13;55.84
11339;BME280;5724;42.684;23.252;2022-07-10T10:26:41;94141.50;;;21.30;54.62
11339;BME280;5724;42.684;23.252;2022-07-10T10:29:08;94137.97;;;21.46;55.08
11339;BME280;5724;42.684;23.252;2022-07-10T10:31:34;94136.03;;;21.59;55.06
11339;BME280;5724;42.684;23.252;2022-07-10T10:34:00;94139.09;;;21.64;54.04
11339;BME280;5724;42.684;23.252;2022-07-10T10:39:08;94141.78;;;20.99;52.60
11339;BME280;5724;42.684;23.252;2022-07-10T10:41:40;94120.03;;;20.78;54.34
11339;BME280;5724;42.684;23.252;2022-07-10T10:46:32;94134.50;;;21.05;55.05
11339;BME280;5724;42.684;23.252;2022-07-10T10:49:04;94132.16;;;21.20;55.53
11339;BME280;5724;42.684;23.252;2022-07-10T10:52:03;94127.91;;;21.15;53.57
11339;BME280;5724;42.684;23.252;2022-07-10T10:54:30;94132.13;;;21.40;52.35
11339;BME280;5724;42.684;23.252;2022-07-10T10:59:51;94126.81;;;21.78;52.52
11339;BME280;5724;42.684;23.252;2022-07-10T11:08:00;94114.84;;;22.26;50.96
11339;BME280;5724;42.684;23.252;2022-07-10T11:10:45;94104.03;;;22.57;50.07
11339;BME280;5724;42.684;23.252;2022-07-10T11:13:17;94115.44;;;22.76;50.25
11339;BME280;5724;42.684;23.252;2022-07-10T11:15:48;94125.44;;;22.90;47.93
11339;BME280;5724;42.684;23.252;2022-07-10T11:18:16;94124.28;;;22.16;50.59
11339;BME280;5724;42.684;23.252;2022-07-10T11:20:47;94128.38;;;21.95;51.23
11339;BME280;5724;42.684;23.252;2022-07-10T11:23:42;94115.78;;;21.91;51.80
11339;BME280;5724;42.684;23.252;2022-07-10T11:31:20;94107.81;;;21.77;51.25
11339;BME280;5724;42.684;23.252;2022-07-10T11:33:48;94108.69;;;21.74;51.35
11339;BME280;5724;42.684;23.252;2022-07-10T11:36:16;94107.63;;;21.67;51.47
11339;BME280;5724;42.684;23.252;2022-07-10T11:38:43;94106.84;;;21.83;51.58
11339;BME280;5724;42.684;23.252;2022-07-10T11:41:16;94105.06;;;21.89;52.38
11339;BME280;5724;42.684;23.252;2022-07-10T11:46:15;94113.00;;;22.07;51.19
11339;BME280;5724;42.684;23.252;2022-07-10T11:48:41;94113.88;;;22.33;49.88
11339;BME280;5724;42.684;23.252;2022-07-10T11:51:27;94118.53;;;22.23;48.25
11339;BME280;5724;42.684;23.252;2022-07-10T11:54:01;94114.09;;;22.39;47.96
11339;BME280;5724;42.684;23.252;2022-07-10T11:59:13;94111.13;;;22.46;49.08
11339;BME280;5724;42.684;23.252;2022-07-10T12:01:42;94111.91;;;22.46;47.71
11339;BME280;5724;42.684;23.252;2022-07-10T12:04:08;94106.00;;;22.44;48.75
11339;BME280;5724;42.684;23.252;2022-07-10T12:06:37;94111.06;;;22.49;49.04
11339;BME280;5724;42.684;23.252;2022-07-10T12:09:04;94113.16;;;22.58;49.93
11339;BME280;5724;42.684;23.252;2022-07-10T12:11:31;94115.53;;;22.60;50.50
11339;BME280;5724;42.684;23.252;2022-07-10T12:16:42;94119.41;;;22.20;47.22
11339;BME280;5724;42.684;23.252;2022-07-10T12:19:11;94126.53;;;22.05;46.69
11339;BME280;5724;42.684;23.252;2022-07-10T12:21:37;94117.00;;;21.90;48.38
11339;BME280;5724;42.684;23.252;2022-07-10T12:24:03;94123.00;;;21.88;47.93
11339;BME280;5724;42.684;23.252;2022-07-10T12:26:34;94114.25;;;21.74;48.28
11339;BME280;5724;42.684;23.252;2022-07-10T12:29:01;94111.28;;;21.64;50.19
11339;BME280;5724;42.684;23.252;2022-07-10T12:31:38;94113.53;;;21.69;49.57
11339;BME280;5724;42.684;23.252;2022-07-10T12:34:05;94117.53;;;21.68;48.75
11339;BME280;5724;42.684;23.252;2022-07-10T12:36:51;94107.97;;;21.69;48.17
11339;BME280;5724;42.684;23.252;2022-07-10T12:39:20;94107.03;;;21.76;48.98
11339;BME280;5724;42.684;23.252;2022-07-10T12:42:03;94118.91;;;21.93;47.92
11339;BME280;5724;42.684;23.252;2022-07-10T12:47:06;94111.25;;;21.97;44.90
11339;BME280;5724;42.684;23.252;2022-07-10T12:50:02;94108.47;;;21.81;44.65
11339;BME280;5724;42.684;23.252;2022-07-10T12:52:34;94105.84;;;21.90;44.36
11339;BME280;5724;42.684;23.252;2022-07-10T12:55:19;94124.31;;;21.84;43.90
11339;BME280;5724;42.684;23.252;2022-07-10T12:57:54;94118.41;;;21.82;42.13
11339;BME280;5724;42.684;23.252;2022-07-10T13:00:30;94107.78;;;21.93;42.11
11339;BME280;5724;42.684;23.252;2022-07-10T13:03:08;94095.94;;;22.05;41.83
11339;BME280;5724;42.684;23.252;2022-07-10T13:05:41;94116.97;;;22.22;41.04
11339;BME280;5724;42.684;23.252;2022-07-10T13:10:36;94102.94;;;22.68;41.43
11339;BME280;5724;42.684;23.252;2022-07-10T13:13:03;94107.00;;;22.79;41.42
11339;BME280;5724;42.684;23.252;2022-07-10T13:15:29;94113.88;;;22.33;39.84
11339;BME280;5724;42.684;23.252;2022-07-10T13:17:56;94095.94;;;22.05;41.51
11339;BME280;5724;42.684;23.252;2022-07-10T13:20:21;94106.84;;;22.28;42.59
11339;BME280;5724;42.684;23.252;2022-07-10T13:22:47;94107.50;;;22.49;41.48
11339;BME280;5724;42.684;23.252;2022-07-10T13:25:12;94110.00;;;22.31;40.86
11339;BME280;5724;42.684;23.252;2022-07-10T13:27:38;94108.31;;;21.88;40.90
11339;BME280;5724;42.684;23.252;2022-07-10T13:30:05;94098.72;;;21.89;42.47
11339;BME280;5724;42.684;23.252;2022-07-10T13:32:31;94094.50;;;21.84;42.11
11339;BME280;5724;42.684;23.252;2022-07-10T13:34:57;94104.75;;;21.87;42.47
11339;BME280;5724;42.684;23.252;2022-07-10T13:37:22;94109.81;;;21.76;43.03
11339;BME280;5724;42.684;23.252;2022-07-10T13:39:48;94094.69;;;21.61;44.10